sensor_id;sensor_type;location;lat;lon;timestamp;P1;durP1;ratioP1;P2;durP2;ratioP2
8480;SDS011;4277;51.354;6.740;2022-10-13T00:01:21;32.67;;;20.20;;
8480;SDS011;4277;51.354;6.740;2022-10-13T00:03:47;27.57;;;17.20;;
8480;SDS011;4277;51.354;6.740;2022-10-13T00:06:15;26.53;;;17.23;;
8480;SDS011;4277;51.354;6.740;2022-10-13T00:08:42;21.60;;;15.17;;
8480;SDS011;4277;51.354;6.740;2022-10-13T00:11:13;22.60;;;14.13;;
8480;SDS011;4277;51.354;6.740;2022-10-13T00:13:40;19.70;;;13.20;;
8480;SDS011;4277;51.354;6.740;2022-10-13T00:16:06;23.20;;;13.67;;
8480;SDS011;4277;51.354;6.740;2022-10-13T00:18:32;19.80;;;13.43;;
8480;SDS011;4277;51.354;6.740;2022-10-13T00:20:58;20.53;;;13.50;;
8480;SDS011;4277;51.354;6.740;2022-10-13T00:23:24;19.77;;;13.80;;
8480;SDS011;4277;51.354;6.740;2022-10-13T00:25:50;21.57;;;13.17;;
8480;SDS011;4277;51.354;6.740;2022-10-13T00:28:17;20.73;;;13.70;;
8480;SDS011;4277;51.354;6.740;2022-10-13T00:30:44;18.60;;;13.23;;
8480;SDS011;4277;51.354;6.740;2022-10-13T00:33:11;16.90;;;12.80;;
8480;SDS011;4277;51.354;6.740;2022-10-13T00:35:41;19.00;;;13.13;;
8480;SDS011;4277;51.354;6.740;2022-10-13T00:38:07;20.53;;;13.50;;
8480;SDS011;4277;51.354;6.740;2022-10-13T00:40:33;19.17;;;12.43;;
8480;SDS011;4277;51.354;6.740;2022-10-13T00:42:59;18.20;;;13.00;;
8480;SDS011;4277;51.354;6.740;2022-10-13T00:45:26;22.27;;;12.87;;
8480;SDS011;4277;51.354;6.740;2022-10-13T00:47:57;19.10;;;13.10;;
8480;SDS011;4277;51.354;6.740;2022-10-13T00:50:25;18.23;;;12.87;;
8480;SDS011;4277;51.354;6.740;2022-10-13T00:52:52;22.20;;;13.17;;
8480;SDS011;4277;51.354;6.740;2022-10-13T00:55:20;18.53;;;13.23;;
8480;SDS011;4277;51.354;6.740;2022-10-13T00:57:47;19.77;;;13.70;;
8480;SDS011;4277;51.354;6.740;2022-10-13T01:00:19;17.73;;;13.00;;
8480;SDS011;4277;51.354;6.740;2022-10-13T01:02:45;18.43;;;12.70;;
8480;SDS011;4277;51.354;6.740;2022-10-13T01:05:11;24.00;;;13.53;;
8480;SDS011;4277;51.354;6.740;2022-10-13T01:07:37;19.30;;;12.43;;
8480;SDS011;4277;51.354;6.740;2022-10-13T01:10:03;19.90;;;12.70;;
8480;SDS011;4277;51.354;6.740;2022-10-13T01:12:39;17.73;;;12.20;;
8480;SDS011;4277;51.354;6.740;2022-10-13T01:15:13;17.47;;;12.57;;
8480;SDS011;4277;51.354;6.740;2022-10-13T01:17:49;20.33;;;12.13;;
8480;SDS011;4277;51.354;6.740;2022-10-13T01:25:51;23.43;;;13.67;;
8480;SDS011;4277;51.354;6.740;2022-10-13T01:28:26;21.33;;;13.00;;
8480;SDS011;4277;51.354;6.740;2022-10-13T01:30:57;16.17;;;12.63;;
8480;SDS011;4277;51.354;6.740;2022-10-13T01:38:46;20.20;;;13.17;;
8480;SDS011;4277;51.354;6.740;2022-10-13T01:41:18;23.07;;;14.03;;
8480;SDS011;4277;51.354;6.740;2022-10-13T01:43:46;19.57;;;13.43;;
8480;SDS011;4277;51.354;6.740;2022-10-13T01:46:16;18.40;;;13.50;;
8480;SDS011;4277;51.354;6.740;2022-10-13T01:48:44;16.43;;;13.00;;
8480;SDS011;4277;51.354;6.740;2022-10-13T01:51:12;18.83;;;13.00;;
8480;SDS011;4277;51.354;6.740;2022-10-13T01:53:39;19.33;;;13.50;;
8480;SDS011;4277;51.354;6.740;2022-10-13T01:56:05;19.87;;;13.57;;
8480;SDS011;4277;51.354;6.740;2022-10-13T01:58:32;17.80;;;13.30;;
8480;SDS011;4277;51.354;6.740;2022-10-13T02:03:47;21.13;;;13.27;;
8480;SDS011;4277;51.354;6.740;2022-10-13T02:06:21;17.63;;;13.03;;
8480;SDS011;4277;51.354;6.740;2022-10-13T02:08:53;19.17;;;12.93;;
8480;SDS011;4277;51.354;6.740;2022-10-13T02:11:21;18.73;;;12.83;;
8480;SDS011;4277;51.354;6.740;2022-10-13T02:14:30;16.80;;;12.27;;
8480;SDS011;4277;51.354;6.740;2022-10-13T02:16:40;17.77;;;12.60;;
8480;SDS011;4277;51.354;6.740;2022-10-13T02:19:07;19.50;;;13.63;;
8480;SDS011;4277;51.354;6.740;2022-10-13T02:21:34;18.10;;;13.13;;
8480;SDS011;4277;51.354;6.740;2022-10-13T02:24:01;19.70;;;13.17;;
8480;SDS011;4277;51.354;6.740;2022-10-13T02:26:28;17.97;;;13.53;;
8480;SDS011;4277;51.354;6.740;2022-10-13T02:28:54;18.07;;;12.90;;
8480;SDS011;4277;51.354;6.740;2022-10-13T02:31:20;18.13;;;12.73;;
8480;SDS011;4277;51.354;6.740;2022-10-13T02:33:46;18.07;;;13.17;;
8480;SDS011;4277;51.354;6.740;2022-10-13T02:36:12;17.97;;;12.90;;
8480;SDS011;4277;51.354;6.740;2022-10-13T02:38:38;22.00;;;13.33;;
8480;SDS011;4277;51.354;6.740;2022-10-13T02:41:04;16.40;;;12.77;;
8480;SDS011;4277;51.354;6.740;2022-10-13T02:43:30;19.67;;;13.27;;
8480;SDS011;4277;51.354;6.740;2022-10-13T02:46:01;16.90;;;12.23;;
8480;SDS011;4277;51.354;6.740;2022-10-13T02:48:26;15.87;;;11.07;;
8480;SDS011;4277;51.354;6.740;2022-10-13T02:50:52;18.13;;;11.50;;
8480;SDS011;4277;51.354;6.740;2022-10-13T02:53:18;16.17;;;11.07;;
8480;SDS011;4277;51.354;6.740;2022-10-13T02:55:44;19.13;;;12.63;;
8480;SDS011;4277;51.354;6.740;2022-10-13T02:58:12;21.20;;;12.20;;
8480;SDS011;4277;51.354;6.740;2022-10-13T03:00:38;17.27;;;11.57;;
8480;SDS011;4277;51.354;6.740;2022-10-13T03:03:04;16.67;;;11.83;;
8480;SDS011;4277;51.354;6.740;2022-10-13T03:05:31;18.77;;;12.07;;
8480;SDS011;4277;51.354;6.740;2022-10-13T03:07:56;18.83;;;12.57;;
8480;SDS011;4277;51.354;6.740;2022-10-13T03:10:22;17.37;;;12.83;;
8480;SDS011;4277;51.354;6.740;2022-10-13T03:12:49;15.47;;;12.33;;
8480;SDS011;4277;51.354;6.740;2022-10-13T03:15:14;20.07;;;13.23;;
8480;SDS011;4277;51.354;6.740;2022-10-13T03:17:40;16.53;;;12.50;;
8480;SDS011;4277;51.354;6.740;2022-10-13T03:20:07;19.63;;;13.13;;
8480;SDS011;4277;51.354;6.740;2022-10-13T03:22:33;14.83;;;12.40;;
8480;SDS011;4277;51.354;6.740;2022-10-13T03:24:59;19.03;;;13.87;;
8480;SDS011;4277;51.354;6.740;2022-10-13T03:27:25;19.63;;;12.93;;
8480;SDS011;4277;51.354;6.740;2022-10-13T03:29:51;17.57;;;12.97;;
8480;SDS011;4277;51.354;6.740;2022-10-13T03:32:17;21.83;;;13.37;;
8480;SDS011;4277;51.354;6.740;2022-10-13T03:34:43;21.17;;;12.57;;
8480;SDS011;4277;51.354;6.740;2022-10-13T03:37:09;20.13;;;13.37;;
8480;SDS011;4277;51.354;6.740;2022-10-13T03:39:35;18.93;;;12.70;;
8480;SDS011;4277;51.354;6.740;2022-10-13T03:42:01;22.80;;;12.63;;
8480;SDS011;4277;51.354;6.740;2022-10-13T03:44:27;20.50;;;12.37;;
8480;SDS011;4277;51.354;6.740;2022-10-13T03:46:53;16.47;;;12.83;;
8480;SDS011;4277;51.354;6.740;2022-10-13T03:49:19;20.60;;;13.37;;
8480;SDS011;4277;51.354;6.740;2022-10-13T03:51:45;19.70;;;12.23;;
8480;SDS011;4277;51.354;6.740;2022-10-13T03:54:11;19.67;;;13.87;;
8480;SDS011;4277;51.354;6.740;2022-10-13T03:56:37;18.90;;;13.23;;
8480;SDS011;4277;51.354;6.740;2022-10-13T03:59:04;20.83;;;12.53;;
8480;SDS011;4277;51.354;6.740;2022-10-13T04:01:30;19.50;;;13.33;;
8480;SDS011;4277;51.354;6.740;2022-10-13T04:03:57;19.80;;;13.33;;
8480;SDS011;4277;51.354;6.740;2022-10-13T04:06:24;19.57;;;13.10;;
8480;SDS011;4277;51.354;6.740;2022-10-13T04:08:50;21.40;;;13.20;;
8480;SDS011;4277;51.354;6.740;2022-10-13T04:11:16;18.90;;;13.47;;
8480;SDS011;4277;51.354;6.740;2022-10-13T04:13:43;19.60;;;13.40;;
8480;SDS011;4277;51.354;6.740;2022-10-13T04:16:14;18.97;;;13.03;;
8480;SDS011;4277;51.354;6.740;2022-10-13T04:18:40;17.97;;;12.80;;
8480;SDS011;4277;51.354;6.740;2022-10-13T04:21:07;19.50;;;13.27;;
8480;SDS011;4277;51.354;6.740;2022-10-13T04:23:34;17.77;;;12.37;;
8480;SDS011;4277;51.354;6.740;2022-10-13T04:26:00;21.20;;;13.60;;
8480;SDS011;4277;51.354;6.740;2022-10-13T04:28:26;19.07;;;12.80;;
8480;SDS011;4277;51.354;6.740;2022-10-13T04:30:52;18.53;;;12.00;;
8480;SDS011;4277;51.354;6.740;2022-10-13T04:33:18;19.23;;;13.07;;
8480;SDS011;4277;51.354;6.740;2022-10-13T04:35:43;20.23;;;13.77;;
8480;SDS011;4277;51.354;6.740;2022-10-13T04:38:10;17.80;;;12.37;;
8480;SDS011;4277;51.354;6.740;2022-10-13T04:40:36;17.37;;;12.03;;
8480;SDS011;4277;51.354;6.740;2022-10-13T04:43:02;20.20;;;13.13;;
8480;SDS011;4277;51.354;6.740;2022-10-13T04:45:28;18.43;;;12.70;;
8480;SDS011;4277;51.354;6.740;2022-10-13T04:47:54;16.43;;;12.07;;
8480;SDS011;4277;51.354;6.740;2022-10-13T04:50:20;17.57;;;12.67;;
8480;SDS011;4277;51.354;6.740;2022-10-13T04:52:46;18.43;;;11.83;;
8480;SDS011;4277;51.354;6.740;2022-10-13T04:55:12;19.33;;;13.43;;
8480;SDS011;4277;51.354;6.740;2022-10-13T04:57:38;15.33;;;11.37;;
8480;SDS011;4277;51.354;6.740;2022-10-13T05:00:04;17.67;;;12.93;;
8480;SDS011;4277;51.354;6.740;2022-10-13T05:02:34;19.83;;;12.87;;
8480;SDS011;4277;51.354;6.740;2022-10-13T05:05:00;17.10;;;12.83;;
8480;SDS011;4277;51.354;6.740;2022-10-13T05:07:26;22.10;;;13.20;;
8480;SDS011;4277;51.354;6.740;2022-10-13T05:09:52;22.93;;;13.40;;
8480;SDS011;4277;51.354;6.740;2022-10-13T05:12:18;19.60;;;12.93;;
8480;SDS011;4277;51.354;6.740;2022-10-13T05:14:44;19.60;;;12.93;;
8480;SDS011;4277;51.354;6.740;2022-10-13T05:17:10;20.40;;;12.60;;
8480;SDS011;4277;51.354;6.740;2022-10-13T05:19:36;19.00;;;12.83;;
8480;SDS011;4277;51.354;6.740;2022-10-13T05:22:02;19.40;;;12.43;;
8480;SDS011;4277;51.354;6.740;2022-10-13T05:24:28;19.50;;;13.17;;
8480;SDS011;4277;51.354;6.740;2022-10-13T05:27:08;20.37;;;12.90;;
8480;SDS011;4277;51.354;6.740;2022-10-13T05:29:35;16.87;;;11.73;;
8480;SDS011;4277;51.354;6.740;2022-10-13T05:32:01;17.90;;;12.13;;
8480;SDS011;4277;51.354;6.740;2022-10-13T05:34:27;17.07;;;12.57;;
8480;SDS011;4277;51.354;6.740;2022-10-13T05:36:53;18.73;;;12.70;;
8480;SDS011;4277;51.354;6.740;2022-10-13T05:39:19;17.43;;;11.70;;
8480;SDS011;4277;51.354;6.740;2022-10-13T05:41:45;19.80;;;12.60;;
8480;SDS011;4277;51.354;6.740;2022-10-13T05:44:10;19.87;;;12.40;;
8480;SDS011;4277;51.354;6.740;2022-10-13T05:46:36;17.43;;;11.97;;
8480;SDS011;4277;51.354;6.740;2022-10-13T05:49:02;16.50;;;11.70;;
8480;SDS011;4277;51.354;6.740;2022-10-13T05:51:29;19.93;;;13.67;;
8480;SDS011;4277;51.354;6.740;2022-10-13T05:53:58;20.10;;;13.73;;
8480;SDS011;4277;51.354;6.740;2022-10-13T05:56:26;15.73;;;12.50;;
8480;SDS011;4277;51.354;6.740;2022-10-13T05:58:55;17.87;;;13.20;;
8480;SDS011;4277;51.354;6.740;2022-10-13T06:01:23;23.80;;;13.73;;
8480;SDS011;4277;51.354;6.740;2022-10-13T06:03:51;19.03;;;12.80;;
8480;SDS011;4277;51.354;6.740;2022-10-13T06:06:18;20.30;;;13.33;;
8480;SDS011;4277;51.354;6.740;2022-10-13T06:08:44;20.90;;;13.33;;
8480;SDS011;4277;51.354;6.740;2022-10-13T06:11:10;18.27;;;12.90;;
8480;SDS011;4277;51.354;6.740;2022-10-13T06:13:36;18.53;;;11.93;;
8480;SDS011;4277;51.354;6.740;2022-10-13T06:16:02;18.70;;;12.67;;
8480;SDS011;4277;51.354;6.740;2022-10-13T06:18:28;19.10;;;13.50;;
8480;SDS011;4277;51.354;6.740;2022-10-13T06:20:53;18.30;;;12.37;;
8480;SDS011;4277;51.354;6.740;2022-10-13T06:23:19;18.40;;;12.30;;
8480;SDS011;4277;51.354;6.740;2022-10-13T06:25:46;17.93;;;12.87;;
8480;SDS011;4277;51.354;6.740;2022-10-13T06:28:12;19.30;;;13.17;;
8480;SDS011;4277;51.354;6.740;2022-10-13T06:30:38;18.03;;;12.07;;
8480;SDS011;4277;51.354;6.740;2022-10-13T06:33:06;17.83;;;12.20;;
8480;SDS011;4277;51.354;6.740;2022-10-13T06:35:33;18.30;;;12.53;;
8480;SDS011;4277;51.354;6.740;2022-10-13T06:38:00;19.73;;;13.13;;
8480;SDS011;4277;51.354;6.740;2022-10-13T06:40:26;15.47;;;12.40;;
8480;SDS011;4277;51.354;6.740;2022-10-13T06:42:52;18.07;;;13.10;;
8480;SDS011;4277;51.354;6.740;2022-10-13T06:45:18;14.93;;;11.23;;
8480;SDS011;4277;51.354;6.740;2022-10-13T06:47:44;18.90;;;13.00;;
8480;SDS011;4277;51.354;6.740;2022-10-13T06:50:10;18.37;;;12.63;;
8480;SDS011;4277;51.354;6.740;2022-10-13T06:52:36;20.07;;;12.37;;
8480;SDS011;4277;51.354;6.740;2022-10-13T06:55:03;18.33;;;12.33;;
8480;SDS011;4277;51.354;6.740;2022-10-13T06:57:29;17.33;;;11.63;;
8480;SDS011;4277;51.354;6.740;2022-10-13T06:59:55;17.37;;;11.63;;
8480;SDS011;4277;51.354;6.740;2022-10-13T07:02:21;16.40;;;12.20;;
8480;SDS011;4277;51.354;6.740;2022-10-13T07:04:47;17.47;;;11.37;;
8480;SDS011;4277;51.354;6.740;2022-10-13T07:07:13;19.73;;;11.50;;
8480;SDS011;4277;51.354;6.740;2022-10-13T07:09:40;17.60;;;11.97;;
8480;SDS011;4277;51.354;6.740;2022-10-13T07:12:06;18.63;;;11.57;;
8480;SDS011;4277;51.354;6.740;2022-10-13T07:14:32;14.27;;;11.47;;
8480;SDS011;4277;51.354;6.740;2022-10-13T07:16:58;15.53;;;11.40;;
8480;SDS011;4277;51.354;6.740;2022-10-13T07:19:24;18.77;;;12.20;;
8480;SDS011;4277;51.354;6.740;2022-10-13T07:21:50;15.20;;;10.67;;
8480;SDS011;4277;51.354;6.740;2022-10-13T07:24:16;14.43;;;10.50;;
8480;SDS011;4277;51.354;6.740;2022-10-13T07:26:42;14.77;;;10.93;;
8480;SDS011;4277;51.354;6.740;2022-10-13T07:29:09;18.67;;;11.27;;
8480;SDS011;4277;51.354;6.740;2022-10-13T07:31:35;12.73;;;10.90;;
8480;SDS011;4277;51.354;6.740;2022-10-13T07:34:00;15.50;;;11.03;;
8480;SDS011;4277;51.354;6.740;2022-10-13T07:36:28;15.57;;;11.37;;
8480;SDS011;4277;51.354;6.740;2022-10-13T07:38:54;17.93;;;11.47;;
8480;SDS011;4277;51.354;6.740;2022-10-13T07:41:20;18.87;;;11.37;;
8480;SDS011;4277;51.354;6.740;2022-10-13T07:43:46;14.33;;;11.13;;
8480;SDS011;4277;51.354;6.740;2022-10-13T07:46:12;16.27;;;11.63;;
8480;SDS011;4277;51.354;6.740;2022-10-13T07:48:38;16.97;;;11.40;;
8480;SDS011;4277;51.354;6.740;2022-10-13T07:51:05;17.80;;;11.53;;
8480;SDS011;4277;51.354;6.740;2022-10-13T07:53:32;15.97;;;11.07;;
8480;SDS011;4277;51.354;6.740;2022-10-13T07:55:59;17.40;;;11.30;;
8480;SDS011;4277;51.354;6.740;2022-10-13T07:58:25;16.93;;;10.97;;
8480;SDS011;4277;51.354;6.740;2022-10-13T08:00:58;14.80;;;10.67;;
8480;SDS011;4277;51.354;6.740;2022-10-13T08:03:25;17.07;;;10.63;;
8480;SDS011;4277;51.354;6.740;2022-10-13T08:05:51;15.47;;;9.90;;
8480;SDS011;4277;51.354;6.740;2022-10-13T08:08:17;16.43;;;10.73;;
8480;SDS011;4277;51.354;6.740;2022-10-13T08:10:44;17.67;;;10.83;;
8480;SDS011;4277;51.354;6.740;2022-10-13T08:13:10;18.00;;;10.87;;
8480;SDS011;4277;51.354;6.740;2022-10-13T08:15:40;21.27;;;11.33;;
8480;SDS011;4277;51.354;6.740;2022-10-13T08:18:06;15.27;;;10.10;;
8480;SDS011;4277;51.354;6.740;2022-10-13T08:20:32;14.97;;;10.47;;
8480;SDS011;4277;51.354;6.740;2022-10-13T08:22:59;17.77;;;11.13;;
8480;SDS011;4277;51.354;6.740;2022-10-13T08:25:25;16.93;;;10.60;;
8480;SDS011;4277;51.354;6.740;2022-10-13T08:27:51;18.83;;;11.13;;
8480;SDS011;4277;51.354;6.740;2022-10-13T08:30:17;16.83;;;11.20;;
8480;SDS011;4277;51.354;6.740;2022-10-13T08:32:43;17.03;;;10.37;;
8480;SDS011;4277;51.354;6.740;2022-10-13T08:35:09;14.87;;;10.40;;
8480;SDS011;4277;51.354;6.740;2022-10-13T08:37:35;16.27;;;10.27;;
8480;SDS011;4277;51.354;6.740;2022-10-13T08:40:01;18.50;;;10.63;;
8480;SDS011;4277;51.354;6.740;2022-10-13T08:42:27;19.90;;;11.07;;
8480;SDS011;4277;51.354;6.740;2022-10-13T08:44:57;15.60;;;9.87;;
8480;SDS011;4277;51.354;6.740;2022-10-13T08:49:54;14.27;;;9.63;;
8480;SDS011;4277;51.354;6.740;2022-10-13T08:52:22;15.80;;;9.90;;
8480;SDS011;4277;51.354;6.740;2022-10-13T08:54:48;14.50;;;9.70;;
8480;SDS011;4277;51.354;6.740;2022-10-13T08:57:14;18.07;;;10.40;;
8480;SDS011;4277;51.354;6.740;2022-10-13T08:59:40;15.77;;;9.97;;
8480;SDS011;4277;51.354;6.740;2022-10-13T09:02:11;17.67;;;10.23;;
8480;SDS011;4277;51.354;6.740;2022-10-13T09:04:38;14.10;;;9.77;;
8480;SDS011;4277;51.354;6.740;2022-10-13T09:07:16;21.17;;;10.00;;
8480;SDS011;4277;51.354;6.740;2022-10-13T09:09:48;14.77;;;9.77;;
8480;SDS011;4277;51.354;6.740;2022-10-13T09:12:15;15.20;;;9.37;;
8480;SDS011;4277;51.354;6.740;2022-10-13T09:14:54;15.50;;;9.47;;
8480;SDS011;4277;51.354;6.740;2022-10-13T09:17:29;14.63;;;9.37;;
8480;SDS011;4277;51.354;6.740;2022-10-13T09:20:00;11.60;;;8.43;;
8480;SDS011;4277;51.354;6.740;2022-10-13T09:22:39;16.10;;;9.10;;
8480;SDS011;4277;51.354;6.740;2022-10-13T09:27:48;11.43;;;8.80;;
8480;SDS011;4277;51.354;6.740;2022-10-13T09:30:33;10.60;;;8.27;;
8480;SDS011;4277;51.354;6.740;2022-10-13T09:38:12;13.53;;;9.50;;
8480;SDS011;4277;51.354;6.740;2022-10-13T09:40:59;18.87;;;9.80;;
8480;SDS011;4277;51.354;6.740;2022-10-13T09:46:12;12.93;;;9.03;;
8480;SDS011;4277;51.354;6.740;2022-10-13T09:48:46;13.53;;;8.67;;
8480;SDS011;4277;51.354;6.740;2022-10-13T09:51:31;15.50;;;8.97;;
8480;SDS011;4277;51.354;6.740;2022-10-13T09:54:03;16.40;;;9.10;;
8480;SDS011;4277;51.354;6.740;2022-10-13T10:01:37;12.20;;;8.10;;
8480;SDS011;4277;51.354;6.740;2022-10-13T10:04:07;11.47;;;7.80;;
8480;SDS011;4277;51.354;6.740;2022-10-13T10:06:37;12.30;;;8.20;;
8480;SDS011;4277;51.354;6.740;2022-10-13T10:09:08;18.07;;;8.37;;
8480;SDS011;4277;51.354;6.740;2022-10-13T10:11:57;10.17;;;7.53;;
8480;SDS011;4277;51.354;6.740;2022-10-13T10:14:31;10.80;;;7.60;;
8480;SDS011;4277;51.354;6.740;2022-10-13T10:17:11;10.93;;;7.40;;
8480;SDS011;4277;51.354;6.740;2022-10-13T10:27:30;11.83;;;7.40;;
8480;SDS011;4277;51.354;6.740;2022-10-13T10:30:01;10.43;;;7.37;;
8480;SDS011;4277;51.354;6.740;2022-10-13T10:34:59;13.07;;;7.90;;
8480;SDS011;4277;51.354;6.740;2022-10-13T10:42:39;8.80;;;6.93;;
8480;SDS011;4277;51.354;6.740;2022-10-13T10:45:18;14.47;;;7.97;;
8480;SDS011;4277;51.354;6.740;2022-10-13T10:47:45;14.60;;;8.50;;
8480;SDS011;4277;51.354;6.740;2022-10-13T10:50:13;11.97;;;7.70;;
8480;SDS011;4277;51.354;6.740;2022-10-13T10:55:23;16.77;;;8.50;;
8480;SDS011;4277;51.354;6.740;2022-10-13T10:57:59;13.33;;;7.80;;
8480;SDS011;4277;51.354;6.740;2022-10-13T11:00:27;12.70;;;8.10;;
8480;SDS011;4277;51.354;6.740;2022-10-13T11:14:39;11.10;;;7.70;;
8480;SDS011;4277;51.354;6.740;2022-10-13T11:16:35;10.67;;;7.97;;
8480;SDS011;4277;51.354;6.740;2022-10-13T11:19:26;10.30;;;7.70;;
8480;SDS011;4277;51.354;6.740;2022-10-13T11:29:49;17.77;;;8.53;;
8480;SDS011;4277;51.354;6.740;2022-10-13T12:03:25;7.17;;;5.13;;
8480;SDS011;4277;51.354;6.740;2022-10-13T12:05:51;11.57;;;4.80;;
8480;SDS011;4277;51.354;6.740;2022-10-13T12:08:18;9.30;;;5.27;;
8480;SDS011;4277;51.354;6.740;2022-10-13T12:10:44;6.80;;;5.17;;
8480;SDS011;4277;51.354;6.740;2022-10-13T12:13:21;9.77;;;5.37;;
8480;SDS011;4277;51.354;6.740;2022-10-13T12:15:48;9.30;;;5.10;;
8480;SDS011;4277;51.354;6.740;2022-10-13T12:18:31;10.40;;;5.57;;
8480;SDS011;4277;51.354;6.740;2022-10-13T12:21:12;9.40;;;5.43;;
8480;SDS011;4277;51.354;6.740;2022-10-13T12:23:38;9.07;;;5.43;;
8480;SDS011;4277;51.354;6.740;2022-10-13T12:26:04;11.77;;;5.80;;
8480;SDS011;4277;51.354;6.740;2022-10-13T12:28:43;10.13;;;5.73;;
8480;SDS011;4277;51.354;6.740;2022-10-13T12:31:16;7.77;;;5.37;;
8480;SDS011;4277;51.354;6.740;2022-10-13T12:33:42;9.30;;;5.30;;
8480;SDS011;4277;51.354;6.740;2022-10-13T12:36:51;10.77;;;6.00;;
8480;SDS011;4277;51.354;6.740;2022-10-13T12:38:59;8.43;;;5.80;;
8480;SDS011;4277;51.354;6.740;2022-10-13T12:41:27;6.53;;;5.53;;
8480;SDS011;4277;51.354;6.740;2022-10-13T12:43:54;9.67;;;5.93;;
8480;SDS011;4277;51.354;6.740;2022-10-13T12:49:15;15.37;;;6.00;;
8480;SDS011;4277;51.354;6.740;2022-10-13T12:51:42;6.87;;;5.57;;
8480;SDS011;4277;51.354;6.740;2022-10-13T12:54:29;8.57;;;5.53;;
8480;SDS011;4277;51.354;6.740;2022-10-13T12:57:00;10.50;;;5.20;;
8480;SDS011;4277;51.354;6.740;2022-10-13T12:59:27;8.43;;;5.30;;
8480;SDS011;4277;51.354;6.740;2022-10-13T13:02:03;7.87;;;5.00;;
8480;SDS011;4277;51.354;6.740;2022-10-13T13:04:40;10.03;;;4.93;;
8480;SDS011;4277;51.354;6.740;2022-10-13T13:07:27;7.77;;;4.43;;
8480;SDS011;4277;51.354;6.740;2022-10-13T13:10:00;6.17;;;4.47;;
8480;SDS011;4277;51.354;6.740;2022-10-13T13:12:26;9.77;;;4.97;;
8480;SDS011;4277;51.354;6.740;2022-10-13T13:14:53;6.37;;;4.13;;
8480;SDS011;4277;51.354;6.740;2022-10-13T13:17:21;6.07;;;4.40;;
8480;SDS011;4277;51.354;6.740;2022-10-13T13:19:51;6.53;;;4.17;;
8480;SDS011;4277;51.354;6.740;2022-10-13T13:22:18;5.70;;;4.40;;
8480;SDS011;4277;51.354;6.740;2022-10-13T13:24:44;5.47;;;4.17;;
8480;SDS011;4277;51.354;6.740;2022-10-13T13:29:39;6.67;;;4.10;;
8480;SDS011;4277;51.354;6.740;2022-10-13T13:32:05;6.87;;;4.20;;
8480;SDS011;4277;51.354;6.740;2022-10-13T13:34:31;6.97;;;4.00;;
8480;SDS011;4277;51.354;6.740;2022-10-13T13:36:57;6.63;;;4.10;;
8480;SDS011;4277;51.354;6.740;2022-10-13T13:39:25;8.73;;;4.70;;
8480;SDS011;4277;51.354;6.740;2022-10-13T13:41:51;6.80;;;4.00;;
8480;SDS011;4277;51.354;6.740;2022-10-13T13:44:17;9.63;;;4.60;;
8480;SDS011;4277;51.354;6.740;2022-10-13T13:46:43;6.50;;;4.60;;
8480;SDS011;4277;51.354;6.740;2022-10-13T13:49:10;6.23;;;4.50;;
8480;SDS011;4277;51.354;6.740;2022-10-13T13:51:36;8.27;;;4.87;;
8480;SDS011;4277;51.354;6.740;2022-10-13T13:54:02;8.33;;;4.57;;
8480;SDS011;4277;51.354;6.740;2022-10-13T13:56:28;7.07;;;4.40;;
8480;SDS011;4277;51.354;6.740;2022-10-13T13:58:54;8.23;;;5.23;;
8480;SDS011;4277;51.354;6.740;2022-10-13T14:01:20;10.13;;;5.50;;
8480;SDS011;4277;51.354;6.740;2022-10-13T14:03:47;7.90;;;5.27;;
8480;SDS011;4277;51.354;6.740;2022-10-13T14:06:19;8.30;;;6.10;;
8480;SDS011;4277;51.354;6.740;2022-10-13T14:08:46;10.80;;;6.50;;
8480;SDS011;4277;51.354;6.740;2022-10-13T14:11:13;10.00;;;6.00;;
8480;SDS011;4277;51.354;6.740;2022-10-13T14:13:39;10.13;;;6.40;;
8480;SDS011;4277;51.354;6.740;2022-10-13T14:16:05;11.83;;;7.03;;
8480;SDS011;4277;51.354;6.740;2022-10-13T14:18:31;14.07;;;7.00;;
8480;SDS011;4277;51.354;6.740;2022-10-13T14:20:57;8.60;;;6.97;;
8480;SDS011;4277;51.354;6.740;2022-10-13T14:23:23;10.63;;;6.90;;
8480;SDS011;4277;51.354;6.740;2022-10-13T14:25:49;12.07;;;6.97;;
8480;SDS011;4277;51.354;6.740;2022-10-13T14:28:15;10.67;;;7.10;;
8480;SDS011;4277;51.354;6.740;2022-10-13T14:30:41;10.00;;;6.83;;
8480;SDS011;4277;51.354;6.740;2022-10-13T14:33:07;12.10;;;7.77;;
8480;SDS011;4277;51.354;6.740;2022-10-13T14:35:33;16.13;;;7.90;;
8480;SDS011;4277;51.354;6.740;2022-10-13T14:37:59;13.30;;;7.60;;
8480;SDS011;4277;51.354;6.740;2022-10-13T14:40:25;10.80;;;8.03;;
8480;SDS011;4277;51.354;6.740;2022-10-13T14:42:51;10.47;;;7.53;;
8480;SDS011;4277;51.354;6.740;2022-10-13T14:45:17;9.40;;;6.27;;
8480;SDS011;4277;51.354;6.740;2022-10-13T14:47:43;11.20;;;7.37;;
8480;SDS011;4277;51.354;6.740;2022-10-13T14:50:09;12.57;;;8.00;;
8480;SDS011;4277;51.354;6.740;2022-10-13T14:52:35;12.23;;;8.00;;
8480;SDS011;4277;51.354;6.740;2022-10-13T14:55:01;8.97;;;6.67;;
8480;SDS011;4277;51.354;6.740;2022-10-13T14:57:27;17.03;;;8.23;;
8480;SDS011;4277;51.354;6.740;2022-10-13T14:59:53;11.90;;;8.10;;
8480;SDS011;4277;51.354;6.740;2022-10-13T15:02:19;12.43;;;6.83;;
8480;SDS011;4277;51.354;6.740;2022-10-13T15:04:45;12.17;;;7.13;;
8480;SDS011;4277;51.354;6.740;2022-10-13T15:07:11;10.73;;;7.30;;
8480;SDS011;4277;51.354;6.740;2022-10-13T15:09:37;9.63;;;6.60;;
8480;SDS011;4277;51.354;6.740;2022-10-13T15:12:03;11.57;;;7.93;;
8480;SDS011;4277;51.354;6.740;2022-10-13T15:14:29;9.63;;;6.97;;
8480;SDS011;4277;51.354;6.740;2022-10-13T15:16:55;11.10;;;6.97;;
8480;SDS011;4277;51.354;6.740;2022-10-13T15:19:21;10.53;;;7.87;;
8480;SDS011;4277;51.354;6.740;2022-10-13T15:21:47;12.23;;;8.63;;
8480;SDS011;4277;51.354;6.740;2022-10-13T15:24:14;11.13;;;7.33;;
8480;SDS011;4277;51.354;6.740;2022-10-13T15:26:39;13.37;;;8.23;;
8480;SDS011;4277;51.354;6.740;2022-10-13T15:29:05;12.77;;;8.87;;
8480;SDS011;4277;51.354;6.740;2022-10-13T15:31:31;15.77;;;8.90;;
8480;SDS011;4277;51.354;6.740;2022-10-13T15:33:57;10.77;;;8.17;;
8480;SDS011;4277;51.354;6.740;2022-10-13T15:36:23;14.53;;;9.23;;
8480;SDS011;4277;51.354;6.740;2022-10-13T15:38:50;14.23;;;9.53;;
8480;SDS011;4277;51.354;6.740;2022-10-13T15:41:16;16.47;;;8.50;;
8480;SDS011;4277;51.354;6.740;2022-10-13T15:43:42;13.70;;;9.60;;
8480;SDS011;4277;51.354;6.740;2022-10-13T15:46:12;13.17;;;9.23;;
8480;SDS011;4277;51.354;6.740;2022-10-13T15:48:45;14.30;;;9.67;;
8480;SDS011;4277;51.354;6.740;2022-10-13T15:51:12;16.07;;;10.90;;
8480;SDS011;4277;51.354;6.740;2022-10-13T15:53:39;16.43;;;10.87;;
8480;SDS011;4277;51.354;6.740;2022-10-13T15:56:05;11.07;;;8.77;;
8480;SDS011;4277;51.354;6.740;2022-10-13T15:58:31;17.57;;;11.10;;
8480;SDS011;4277;51.354;6.740;2022-10-13T16:00:57;16.70;;;9.70;;
8480;SDS011;4277;51.354;6.740;2022-10-13T16:03:22;12.37;;;9.90;;
8480;SDS011;4277;51.354;6.740;2022-10-13T16:05:53;14.90;;;10.77;;
8480;SDS011;4277;51.354;6.740;2022-10-13T16:08:19;16.07;;;10.60;;
8480;SDS011;4277;51.354;6.740;2022-10-13T16:10:45;18.63;;;12.30;;
8480;SDS011;4277;51.354;6.740;2022-10-13T16:13:12;17.43;;;11.93;;
8480;SDS011;4277;51.354;6.740;2022-10-13T16:15:38;14.17;;;12.00;;
8480;SDS011;4277;51.354;6.740;2022-10-13T16:18:04;16.20;;;12.43;;
8480;SDS011;4277;51.354;6.740;2022-10-13T16:20:30;19.30;;;12.97;;
8480;SDS011;4277;51.354;6.740;2022-10-13T16:22:59;17.70;;;13.03;;
8480;SDS011;4277;51.354;6.740;2022-10-13T16:25:25;18.17;;;13.10;;
8480;SDS011;4277;51.354;6.740;2022-10-13T16:27:51;20.13;;;13.37;;
8480;SDS011;4277;51.354;6.740;2022-10-13T16:30:17;19.03;;;12.77;;
8480;SDS011;4277;51.354;6.740;2022-10-13T16:32:43;18.27;;;13.33;;
8480;SDS011;4277;51.354;6.740;2022-10-13T16:35:09;17.97;;;13.30;;
8480;SDS011;4277;51.354;6.740;2022-10-13T16:37:35;15.27;;;10.27;;
8480;SDS011;4277;51.354;6.740;2022-10-13T16:40:01;12.77;;;10.00;;
8480;SDS011;4277;51.354;6.740;2022-10-13T16:42:27;13.10;;;8.93;;
8480;SDS011;4277;51.354;6.740;2022-10-13T16:44:53;11.27;;;8.80;;